Pomme de Terre River (Missouri), Polk (06921070)

StateMissouriCurrentPotential (177 cfs)
RiverPomme de Terre RiverFlood - The river is flooding. Obstacles can be treacherous or deadly. The river should be avoided at this stage for casual trips and definitely for the inexperienced. Trips should be attempted only with protective gear and equipment.Flood(none)
Updated2019-10-13 19:30 (29 minutes ago)High - The river is high and potentially dangerous, especially for the young and / or inexperienced. Normal stream obstacles are sometimes difficult to navigate. Extended distances can be attempted, but canoe travel may not be advisable.High(none)
Discharge177 cfs (median: 19 cfs)Good - Conditions are ideal for a canoe or kayak. Boats typically will drag on fewer than one-quarter of riffles, if at all, and portages are unnecessary or rare. Normal float lengths can be attempted without a problem.Good250
Height2.44 feetLow - River is low but can still be floated. Some riffles are okay but most come with significant dragging and might need a portage. Float lengths should be reduced to accommodate low flow, dragging, and portages.Low(none)
TrendFalling (falling over 24 hours)Poor - River is too low to float comfortably. Most or all riffles will drag or must be portaged and some obstacles (such as slick shelf rock) cause undue problems. Avoid the river at this stage for casual paddling trips.Poor(none)
USGSExternal icon USGS Site for Polk (06921070)LocationExternal icon Google Maps

Trending Data

Plot Image
ObservationHeightDischargeMaximum
Discharge
Minimum
Discharge
Mean
Discharge
P05P10P20P25P50
(Median)
P75P80P90P95
2019-10-13 19:30 2.44 177 2090 (1970) 1 (1981) 113 3 6 11 11 19 75 167 276 456
2019-10-13 18:30 2.46 181 2090 (1970) 1 (1981) 113 3 6 11 11 19 75 167 276 456
2019-10-13 17:30 2.48 186 2090 (1970) 1 (1981) 113 3 6 11 11 19 75 167 276 456
2019-10-13 16:30 2.50 190 2090 (1970) 1 (1981) 113 3 6 11 11 19 75 167 276 456
2019-10-13 15:30 2.51 192 2090 (1970) 1 (1981) 113 3 6 11 11 19 75 167 276 456
2019-10-13 14:30 2.53 196 2090 (1970) 1 (1981) 113 3 6 11 11 19 75 167 276 456
2019-10-13 13:30 2.55 200 2090 (1970) 1 (1981) 113 3 6 11 11 19 75 167 276 456
2019-10-13 12:30 2.57 205 2090 (1970) 1 (1981) 113 3 6 11 11 19 75 167 276 456
2019-10-13 11:30 2.59 209 2090 (1970) 1 (1981) 113 3 6 11 11 19 75 167 276 456
2019-10-13 10:30 2.62 216 2090 (1970) 1 (1981) 113 3 6 11 11 19 75 167 276 456
2019-10-13 09:30 2.64 221 2090 (1970) 1 (1981) 113 3 6 11 11 19 75 167 276 456
2019-10-13 08:30 2.66 225 2090 (1970) 1 (1981) 113 3 6 11 11 19 75 167 276 456
2019-10-13 07:30 2.69 232 2090 (1970) 1 (1981) 113 3 6 11 11 19 75 167 276 456
2019-10-13 06:30 2.72 239 2090 (1970) 1 (1981) 113 3 6 11 11 19 75 167 276 456
2019-10-13 05:30 2.75 246 2090 (1970) 1 (1981) 113 3 6 11 11 19 75 167 276 456
2019-10-13 04:30 2.77 251 2090 (1970) 1 (1981) 113 3 6 11 11 19 75 167 276 456
2019-10-13 03:30 2.80 258 2090 (1970) 1 (1981) 113 3 6 11 11 19 75 167 276 456
2019-10-13 02:30 2.83 266 2090 (1970) 1 (1981) 113 3 6 11 11 19 75 167 276 456
2019-10-13 01:30 2.87 276 2090 (1970) 1 (1981) 113 3 6 11 11 19 75 167 276 456
2019-10-13 00:30 2.90 284 2090 (1970) 1 (1981) 113 3 6 11 11 19 75 167 276 456
2019-10-12 23:30 2.94 294 3960 (1970) 1 (1981) 149 3 6 10 11 19 47 106 318 493
2019-10-12 22:30 2.98 305 3960 (1970) 1 (1981) 149 3 6 10 11 19 47 106 318 493
2019-10-12 21:30 3.02 316 3960 (1970) 1 (1981) 149 3 6 10 11 19 47 106 318 493
2019-10-12 20:30 3.06 327 3960 (1970) 1 (1981) 149 3 6 10 11 19 47 106 318 493
2019-10-12 19:30 3.11 341 3960 (1970) 1 (1981) 149 3 6 10 11 19 47 106 318 493
2019-10-12 18:30 3.15 352 3960 (1970) 1 (1981) 149 3 6 10 11 19 47 106 318 493
2019-10-12 17:30 3.20 367 3960 (1970) 1 (1981) 149 3 6 10 11 19 47 106 318 493
2019-10-12 16:30 3.26 385 3960 (1970) 1 (1981) 149 3 6 10 11 19 47 106 318 493
2019-10-12 15:30 3.31 400 3960 (1970) 1 (1981) 149 3 6 10 11 19 47 106 318 493
2019-10-12 14:30 3.37 419 3960 (1970) 1 (1981) 149 3 6 10 11 19 47 106 318 493
2019-10-12 13:30 3.44 441 3960 (1970) 1 (1981) 149 3 6 10 11 19 47 106 318 493
2019-10-12 12:30 3.51 464 3960 (1970) 1 (1981) 149 3 6 10 11 19 47 106 318 493
2019-10-12 11:30 3.58 488 3960 (1970) 1 (1981) 149 3 6 10 11 19 47 106 318 493
2019-10-12 10:30 3.66 516 3960 (1970) 1 (1981) 149 3 6 10 11 19 47 106 318 493
2019-10-12 09:30 3.75 548 3960 (1970) 1 (1981) 149 3 6 10 11 19 47 106 318 493
2019-10-12 08:30 3.84 581 3960 (1970) 1 (1981) 149 3 6 10 11 19 47 106 318 493
2019-10-12 07:30 3.95 623 3960 (1970) 1 (1981) 149 3 6 10 11 19 47 106 318 493
2019-10-12 06:30 4.06 666 3960 (1970) 1 (1981) 149 3 6 10 11 19 47 106 318 493
2019-10-12 05:30 4.19 719 3960 (1970) 1 (1981) 149 3 6 10 11 19 47 106 318 493
2019-10-12 04:30 4.34 783 3960 (1970) 1 (1981) 149 3 6 10 11 19 47 106 318 493
2019-10-12 03:30 4.51 859 3960 (1970) 1 (1981) 149 3 6 10 11 19 47 106 318 493
2019-10-12 02:30 4.71 953 3960 (1970) 1 (1981) 149 3 6 10 11 19 47 106 318 493
2019-10-12 01:30 4.93 1060 3960 (1970) 1 (1981) 149 3 6 10 11 19 47 106 318 493
2019-10-12 00:30 5.18 1190 3960 (1970) 1 (1981) 149 3 6 10 11 19 47 106 318 493
2019-10-11 23:30 5.47 1350 748 (2010) 1 (1981) 92 3 6 9 10 19 46 92 429 628
2019-10-11 22:30 5.71 1490 748 (2010) 1 (1981) 92 3 6 9 10 19 46 92 429 628
2019-10-11 21:30 5.83 1560 748 (2010) 1 (1981) 92 3 6 9 10 19 46 92 429 628
2019-10-11 20:30 5.52 1380 748 (2010) 1 (1981) 92 3 6 9 10 19 46 92 429 628
2019-10-11 19:30 3.00 310 748 (2010) 1 (1981) 92 3 6 9 10 19 46 92 429 628
2019-10-11 18:30 2.03 105 748 (2010) 1 (1981) 92 3 6 9 10 19 46 92 429 628
2019-10-11 17:30 1.98 97 748 (2010) 1 (1981) 92 3 6 9 10 19 46 92 429 628
2019-10-11 16:30 1.92 88 748 (2010) 1 (1981) 92 3 6 9 10 19 46 92 429 628
2019-10-11 15:30 1.88 83 748 (2010) 1 (1981) 92 3 6 9 10 19 46 92 429 628
2019-10-11 14:30 1.86 80 748 (2010) 1 (1981) 92 3 6 9 10 19 46 92 429 628
2019-10-11 13:30 1.85 79 748 (2010) 1 (1981) 92 3 6 9 10 19 46 92 429 628
2019-10-11 12:30 1.86 80 748 (2010) 1 (1981) 92 3 6 9 10 19 46 92 429 628
2019-10-11 11:30 1.87 82 748 (2010) 1 (1981) 92 3 6 9 10 19 46 92 429 628
2019-10-11 10:30 1.89 84 748 (2010) 1 (1981) 92 3 6 9 10 19 46 92 429 628
2019-10-11 09:30 1.89 84 748 (2010) 1 (1981) 92 3 6 9 10 19 46 92 429 628
2019-10-11 08:30 1.89 84 748 (2010) 1 (1981) 92 3 6 9 10 19 46 92 429 628
2019-10-11 07:30 1.91 87 748 (2010) 1 (1981) 92 3 6 9 10 19 46 92 429 628
2019-10-11 06:30 1.97 96 748 (2010) 1 (1981) 92 3 6 9 10 19 46 92 429 628
2019-10-11 05:30 1.91 87 748 (2010) 1 (1981) 92 3 6 9 10 19 46 92 429 628
2019-10-11 04:30 1.66 56 748 (2010) 1 (1981) 92 3 6 9 10 19 46 92 429 628
2019-10-11 03:30 1.63 52 748 (2010) 1 (1981) 92 3 6 9 10 19 46 92 429 628
2019-10-11 02:30 1.62 51 748 (2010) 1 (1981) 92 3 6 9 10 19 46 92 429 628
2019-10-11 01:30 1.62 51 748 (2010) 1 (1981) 92 3 6 9 10 19 46 92 429 628
2019-10-11 00:30 1.63 52 748 (2010) 1 (1981) 92 3 6 9 10 19 46 92 429 628
2019-10-10 23:30 1.64 53 3570 (2002) 1 (1981) 187 3 6 8 10 17 46 118 313 1380
2019-10-10 22:30 1.66 56 3570 (2002) 1 (1981) 187 3 6 8 10 17 46 118 313 1380
2019-10-10 21:30 1.68 58 3570 (2002) 1 (1981) 187 3 6 8 10 17 46 118 313 1380
2019-10-10 20:30 1.67 57 3570 (2002) 1 (1981) 187 3 6 8 10 17 46 118 313 1380
2019-10-10 19:30 1.61 50 3570 (2002) 1 (1981) 187 3 6 8 10 17 46 118 313 1380
2019-10-10 18:30 1.58 47 3570 (2002) 1 (1981) 187 3 6 8 10 17 46 118 313 1380
2019-10-10 17:30 1.58 47 3570 (2002) 1 (1981) 187 3 6 8 10 17 46 118 313 1380
2019-10-10 16:30 1.58 47 3570 (2002) 1 (1981) 187 3 6 8 10 17 46 118 313 1380
2019-10-10 15:30 1.60 49 3570 (2002) 1 (1981) 187 3 6 8 10 17 46 118 313 1380
2019-10-10 14:30 1.59 48 3570 (2002) 1 (1981) 187 3 6 8 10 17 46 118 313 1380
2019-10-10 13:30 1.52 41 3570 (2002) 1 (1981) 187 3 6 8 10 17 46 118 313 1380
2019-10-10 12:30 1.44 34 3570 (2002) 1 (1981) 187 3 6 8 10 17 46 118 313 1380
2019-10-10 11:30 1.44 34 3570 (2002) 1 (1981) 187 3 6 8 10 17 46 118 313 1380
2019-10-10 10:30 1.45 35 3570 (2002) 1 (1981) 187 3 6 8 10 17 46 118 313 1380
2019-10-10 09:30 1.46 36 3570 (2002) 1 (1981) 187 3 6 8 10 17 46 118 313 1380
2019-10-10 08:30 1.46 36 3570 (2002) 1 (1981) 187 3 6 8 10 17 46 118 313 1380
2019-10-10 07:30 1.47 37 3570 (2002) 1 (1981) 187 3 6 8 10 17 46 118 313 1380
2019-10-10 06:30 1.49 38 3570 (2002) 1 (1981) 187 3 6 8 10 17 46 118 313 1380
2019-10-10 05:30 1.46 36 3570 (2002) 1 (1981) 187 3 6 8 10 17 46 118 313 1380
2019-10-10 04:30 1.46 36 3570 (2002) 1 (1981) 187 3 6 8 10 17 46 118 313 1380
2019-10-10 03:30 1.47 37 3570 (2002) 1 (1981) 187 3 6 8 10 17 46 118 313 1380
2019-10-10 02:30 1.47 37 3570 (2002) 1 (1981) 187 3 6 8 10 17 46 118 313 1380
2019-10-10 01:30 1.48 38 3570 (2002) 1 (1981) 187 3 6 8 10 17 46 118 313 1380
2019-10-10 00:30 1.49 38 3570 (2002) 1 (1981) 187 3 6 8 10 17 46 118 313 1380
2019-10-09 23:30 1.49 38 12700 (2010) 1 (2007) 446 4 6 8 9 17 41 48 388 3520
2019-10-09 22:30 1.50 39 12700 (2010) 1 (2007) 446 4 6 8 9 17 41 48 388 3520
2019-10-09 21:30 1.50 39 12700 (2010) 1 (2007) 446 4 6 8 9 17 41 48 388 3520
2019-10-09 20:30 1.50 39 12700 (2010) 1 (2007) 446 4 6 8 9 17 41 48 388 3520
2019-10-09 19:30 1.51 40 12700 (2010) 1 (2007) 446 4 6 8 9 17 41 48 388 3520
2019-10-09 18:30 1.51 40 12700 (2010) 1 (2007) 446 4 6 8 9 17 41 48 388 3520
2019-10-09 17:30 1.52 41 12700 (2010) 1 (2007) 446 4 6 8 9 17 41 48 388 3520
2019-10-09 16:30 1.53 42 12700 (2010) 1 (2007) 446 4 6 8 9 17 41 48 388 3520
2019-10-09 15:30 1.53 42 12700 (2010) 1 (2007) 446 4 6 8 9 17 41 48 388 3520
2019-10-09 14:30 1.54 43 12700 (2010) 1 (2007) 446 4 6 8 9 17 41 48 388 3520
2019-10-09 13:30 1.54 43 12700 (2010) 1 (2007) 446 4 6 8 9 17 41 48 388 3520
2019-10-09 12:30 1.55 44 12700 (2010) 1 (2007) 446 4 6 8 9 17 41 48 388 3520
2019-10-09 11:30 1.56 45 12700 (2010) 1 (2007) 446 4 6 8 9 17 41 48 388 3520
2019-10-09 10:30 1.56 45 12700 (2010) 1 (2007) 446 4 6 8 9 17 41 48 388 3520
2019-10-09 09:30 1.57 46 12700 (2010) 1 (2007) 446 4 6 8 9 17 41 48 388 3520
2019-10-09 08:30 1.57 46 12700 (2010) 1 (2007) 446 4 6 8 9 17 41 48 388 3520
2019-10-09 07:30 1.58 47 12700 (2010) 1 (2007) 446 4 6 8 9 17 41 48 388 3520
2019-10-09 06:30 1.58 47 12700 (2010) 1 (2007) 446 4 6 8 9 17 41 48 388 3520
2019-10-09 05:30 1.58 47 12700 (2010) 1 (2007) 446 4 6 8 9 17 41 48 388 3520
2019-10-09 04:30 1.58 47 12700 (2010) 1 (2007) 446 4 6 8 9 17 41 48 388 3520
2019-10-09 03:30 1.59 48 12700 (2010) 1 (2007) 446 4 6 8 9 17 41 48 388 3520
2019-10-09 02:30 1.59 48 12700 (2010) 1 (2007) 446 4 6 8 9 17 41 48 388 3520
2019-10-09 01:30 1.59 48 12700 (2010) 1 (2007) 446 4 6 8 9 17 41 48 388 3520
2019-10-09 00:30 1.60 49 12700 (2010) 1 (2007) 446 4 6 8 9 17 41 48 388 3520
2019-10-08 23:30 1.61 50 1060 (1991) 1 (2007) 95 4 6 8 9 17 48 55 320 642
2019-10-08 22:30 1.61 50 1060 (1991) 1 (2007) 95 4 6 8 9 17 48 55 320 642
2019-10-08 21:30 1.61 50 1060 (1991) 1 (2007) 95 4 6 8 9 17 48 55 320 642
2019-10-08 20:30 1.61 50 1060 (1991) 1 (2007) 95 4 6 8 9 17 48 55 320 642
2019-10-08 19:30 1.62 51 1060 (1991) 1 (2007) 95 4 6 8 9 17 48 55 320 642
2019-10-08 18:30 1.62 51 1060 (1991) 1 (2007) 95 4 6 8 9 17 48 55 320 642
2019-10-08 17:30 1.62 51 1060 (1991) 1 (2007) 95 4 6 8 9 17 48 55 320 642
2019-10-08 16:30 1.63 52 1060 (1991) 1 (2007) 95 4 6 8 9 17 48 55 320 642
2019-10-08 15:30 1.63 52 1060 (1991) 1 (2007) 95 4 6 8 9 17 48 55 320 642
2019-10-08 14:30 1.63 52 1060 (1991) 1 (2007) 95 4 6 8 9 17 48 55 320 642
2019-10-08 13:30 1.63 52 1060 (1991) 1 (2007) 95 4 6 8 9 17 48 55 320 642
2019-10-08 12:30 1.62 51 1060 (1991) 1 (2007) 95 4 6 8 9 17 48 55 320 642
2019-10-08 11:30 1.60 49 1060 (1991) 1 (2007) 95 4 6 8 9 17 48 55 320 642
2019-10-08 10:30 1.55 44 1060 (1991) 1 (2007) 95 4 6 8 9 17 48 55 320 642
2019-10-08 09:30 1.47 37 1060 (1991) 1 (2007) 95 4 6 8 9 17 48 55 320 642
2019-10-08 08:30 1.37 28 1060 (1991) 1 (2007) 95 4 6 8 9 17 48 55 320 642
2019-10-08 07:30 1.25 20 1060 (1991) 1 (2007) 95 4 6 8 9 17 48 55 320 642
2019-10-08 06:30 1.17 15 1060 (1991) 1 (2007) 95 4 6 8 9 17 48 55 320 642
2019-10-08 05:30 1.12 12 1060 (1991) 1 (2007) 95 4 6 8 9 17 48 55 320 642
2019-10-08 04:30 1.11 12 1060 (1991) 1 (2007) 95 4 6 8 9 17 48 55 320 642
2019-10-08 03:30 1.11 12 1060 (1991) 1 (2007) 95 4 6 8 9 17 48 55 320 642
2019-10-08 02:30 1.11 12 1060 (1991) 1 (2007) 95 4 6 8 9 17 48 55 320 642
2019-10-08 01:30 1.11 12 1060 (1991) 1 (2007) 95 4 6 8 9 17 48 55 320 642
2019-10-08 00:30 1.11 12 1060 (1991) 1 (2007) 95 4 6 8 9 17 48 55 320 642
2019-10-07 23:30 1.11 12 2140 (1991) 1 (2007) 97 3 6 7 8 17 45 54 138 657
2019-10-07 22:30 1.11 12 2140 (1991) 1 (2007) 97 3 6 7 8 17 45 54 138 657
2019-10-07 21:30 1.11 12 2140 (1991) 1 (2007) 97 3 6 7 8 17 45 54 138 657
2019-10-07 20:30 1.11 12 2140 (1991) 1 (2007) 97 3 6 7 8 17 45 54 138 657
2019-10-07 19:30 1.11 12 2140 (1991) 1 (2007) 97 3 6 7 8 17 45 54 138 657
2019-10-07 18:30 1.11 12 2140 (1991) 1 (2007) 97 3 6 7 8 17 45 54 138 657
2019-10-07 17:30 1.11 12 2140 (1991) 1 (2007) 97 3 6 7 8 17 45 54 138 657
2019-10-07 16:30 1.11 12 2140 (1991) 1 (2007) 97 3 6 7 8 17 45 54 138 657
2019-10-07 15:30 1.11 12 2140 (1991) 1 (2007) 97 3 6 7 8 17 45 54 138 657
2019-10-07 14:30 1.11 12 2140 (1991) 1 (2007) 97 3 6 7 8 17 45 54 138 657
2019-10-07 13:30 1.11 12 2140 (1991) 1 (2007) 97 3 6 7 8 17 45 54 138 657
2019-10-07 12:30 1.11 12 2140 (1991) 1 (2007) 97 3 6 7 8 17 45 54 138 657
2019-10-07 11:30 1.11 12 2140 (1991) 1 (2007) 97 3 6 7 8 17 45 54 138 657
2019-10-07 10:30 1.11 12 2140 (1991) 1 (2007) 97 3 6 7 8 17 45 54 138 657
2019-10-07 09:30 1.12 12 2140 (1991) 1 (2007) 97 3 6 7 8 17 45 54 138 657
2019-10-07 08:30 1.12 12 2140 (1991) 1 (2007) 97 3 6 7 8 17 45 54 138 657
2019-10-07 07:30 1.12 12 2140 (1991) 1 (2007) 97 3 6 7 8 17 45 54 138 657
2019-10-07 06:30 1.12 12 2140 (1991) 1 (2007) 97 3 6 7 8 17 45 54 138 657
2019-10-07 05:30 1.12 12 2140 (1991) 1 (2007) 97 3 6 7 8 17 45 54 138 657
2019-10-07 04:30 1.12 12 2140 (1991) 1 (2007) 97 3 6 7 8 17 45 54 138 657
2019-10-07 03:30 1.12 12 2140 (1991) 1 (2007) 97 3 6 7 8 17 45 54 138 657
2019-10-07 02:30 1.12 12 2140 (1991) 1 (2007) 97 3 6 7 8 17 45 54 138 657
2019-10-07 01:30 1.12 12 2140 (1991) 1 (2007) 97 3 6 7 8 17 45 54 138 657
2019-10-07 00:30 1.12 12 2140 (1991) 1 (2007) 97 3 6 7 8 17 45 54 138 657
2019-10-06 23:30 1.12 12 3130 (1999) 1 (2007) 103 2 6 7 8 15 40 53 125 360
2019-10-06 22:30 1.12 12 3130 (1999) 1 (2007) 103 2 6 7 8 15 40 53 125 360
2019-10-06 21:30 1.12 12 3130 (1999) 1 (2007) 103 2 6 7 8 15 40 53 125 360
2019-10-06 20:30 1.12 12 3130 (1999) 1 (2007) 103 2 6 7 8 15 40 53 125 360
2019-10-06 19:30 1.12 12 3130 (1999) 1 (2007) 103 2 6 7 8 15 40 53 125 360
2019-10-06 18:30 1.12 12 3130 (1999) 1 (2007) 103 2 6 7 8 15 40 53 125 360
2019-10-06 17:30 1.12 12 3130 (1999) 1 (2007) 103 2 6 7 8 15 40 53 125 360
2019-10-06 16:30 1.12 12 3130 (1999) 1 (2007) 103 2 6 7 8 15 40 53 125 360
2019-10-06 15:30 1.12 12 3130 (1999) 1 (2007) 103 2 6 7 8 15 40 53 125 360
2019-10-06 14:30 1.12 12 3130 (1999) 1 (2007) 103 2 6 7 8 15 40 53 125 360
2019-10-06 13:30 1.12 12 3130 (1999) 1 (2007) 103 2 6 7 8 15 40 53 125 360
2019-10-06 12:30 1.12 12 3130 (1999) 1 (2007) 103 2 6 7 8 15 40 53 125 360
2019-10-06 11:30 1.12 12 3130 (1999) 1 (2007) 103 2 6 7 8 15 40 53 125 360
2019-10-06 10:30 1.11 12 3130 (1999) 1 (2007) 103 2 6 7 8 15 40 53 125 360
2019-10-06 09:30 1.11 12 3130 (1999) 1 (2007) 103 2 6 7 8 15 40 53 125 360
2019-10-06 08:30 1.11 12 3130 (1999) 1 (2007) 103 2 6 7 8 15 40 53 125 360
2019-10-06 07:30 1.11 12 3130 (1999) 1 (2007) 103 2 6 7 8 15 40 53 125 360
2019-10-06 06:30 1.11 12 3130 (1999) 1 (2007) 103 2 6 7 8 15 40 53 125 360
2019-10-06 05:30 1.11 12 3130 (1999) 1 (2007) 103 2 6 7 8 15 40 53 125 360
2019-10-06 04:30 1.12 12 3130 (1999) 1 (2007) 103 2 6 7 8 15 40 53 125 360
2019-10-06 03:30 1.12 12 3130 (1999) 1 (2007) 103 2 6 7 8 15 40 53 125 360
2019-10-06 02:30 1.11 12 3130 (1999) 1 (2007) 103 2 6 7 8 15 40 53 125 360
2019-10-06 01:30 1.11 12 3130 (1999) 1 (2007) 103 2 6 7 8 15 40 53 125 360
2019-10-06 00:30 1.11 12 3130 (1999) 1 (2007) 103 2 6 7 8 15 40 53 125 360

A total of 188 rows are displayed for years 1969 through 2018.

Trips for Pomme de Terre River (Missouri), Polk (06921070)

DateStartEndDistanceConditionDischargeHeightFishingDetails
Click for details2007-06-24 MO 32 CR S-150 Total trip distance: 9.2 miles4.7 Good 269 2.57 None NoneNone Bowe, Michelle
Edmond, Brian
Bowe, Michelle; Edmond, Brian
No notes for this trip<i>No notes for this trip</i> USGS Gauge Data:
Polk (06921070)
Discharge: 269
Height: 2.57
<b>USGS Gauge Data:</b></br />Polk (06921070)<br />Discharge: 269<br />Height: 2.57
Source: EdmondSource: Edmond
Click for details2007-06-24 CR S-150 Rt D Total trip distance: 9.2 miles4.5 Good 269 2.57 None NoneNone Bowe, Michelle
Edmond, Brian
Bowe, Michelle; Edmond, Brian
No notes for this trip<i>No notes for this trip</i> USGS Gauge Data:
Polk (06921070)
Discharge: 269
Height: 2.57
<b>USGS Gauge Data:</b></br />Polk (06921070)<br />Discharge: 269<br />Height: 2.57
Source: EdmondSource: Edmond

A total of 2 rows are displayed.

Trip Summary for Pomme de Terre River (Missouri), Polk (06921070)

Miles9.2
Trips1
People2
Dates1
Years1
Months1
Rows2
Sources1

Condition Descriptions

Fishing Conditions

Fish Species

Notes

Classic Trip List

The classic River Trips application is still available for use. It is updated with the new system using a data retrofit. It is no longer maintained. The original River Trips application is no longer updated (as of 1 Dec 2016) but can be checked for errors or for the condition of the data before it was converted to the new system.